Time;durP1;ratioP1;P1;durP2;ratioP2;P2;SDS_P1;SDS_P2;PMS_P1;PMS_P2;Temp;Humidity;BMP_temperature;BMP_pressure;BME280_temperature;BME280_humidity;BME280_pressure;Samples;Min_cycle;Max_cycle;Signal;HPM_P1;HPM_P2
2023/09/14 00:00:16;;;;;;;1.73;1.20;;;;;;;;;;6189616;23;20024;-92
2023/09/14 00:02:42;;;;;;;1.67;1.08;;;;;;;;;;6215661;23;20365;-91
2023/09/14 00:05:09;;;;;;;2.00;1.10;;;;;;;;;;6190189;23;20023;-91
2023/09/14 00:07:35;;;;;;;1.30;0.90;;;;;;;;;;6217367;23;20064;-90
2023/09/14 00:10:01;;;;;;;2.08;1.25;;;;;;;;;;6217693;23;20043;-93
2023/09/14 00:12:27;;;;;;;4.20;1.38;;;;;;;;;;6218237;23;20012;-92
2023/09/14 00:14:53;;;;;;;2.22;1.05;;;;;;;;;;6217931;23;20333;-92
2023/09/14 00:17:19;;;;;;;3.65;1.50;;;;;;;;;;6217093;23;20021;-93
2023/09/14 00:19:45;;;;;;;3.75;1.10;;;;;;;;;;6218322;23;20350;-91
2023/09/14 00:22:11;;;;;;;2.50;1.05;;;;;;;;;;6216345;23;20047;-92
2023/09/14 00:24:37;;;;;;;1.75;0.93;;;;;;;;;;6192967;23;20341;-92
2023/09/14 00:27:03;;;;;;;1.60;1.05;;;;;;;;;;6217917;23;20311;-92
2023/09/14 00:29:29;;;;;;;2.83;0.93;;;;;;;;;;6192487;23;20091;-91
2023/09/14 00:31:55;;;;;;;1.30;0.70;;;;;;;;;;6217122;23;20016;-90
2023/09/14 00:34:22;;;;;;;1.83;0.70;;;;;;;;;;6217268;23;20337;-91
2023/09/14 00:36:48;;;;;;;1.88;1.23;;;;;;;;;;6215995;23;20382;-91
2023/09/14 00:39:14;;;;;;;1.70;0.90;;;;;;;;;;6217279;23;20032;-91
2023/09/14 00:41:40;;;;;;;2.75;1.35;;;;;;;;;;6218241;23;20012;-91
2023/09/14 00:44:06;;;;;;;1.17;0.98;;;;;;;;;;6192996;23;20012;-90
2023/09/14 00:46:33;;;;;;;1.25;0.80;;;;;;;;;;6192531;23;20008;-90
2023/09/14 00:49:00;;;;;;;1.40;1.00;;;;;;;;;;6217262;23;20453;-91
2023/09/14 00:51:29;;;;;;;1.55;1.08;;;;;;;;;;6216447;23;20012;-90
2023/09/14 00:53:55;;;;;;;1.58;1.02;;;;;;;;;;6216456;23;20047;-90
2023/09/14 00:56:22;;;;;;;1.88;1.15;;;;;;;;;;6212190;23;20012;-90
2023/09/14 00:58:48;;;;;;;1.73;0.70;;;;;;;;;;6212635;23;20017;-90
2023/09/14 01:01:14;;;;;;;1.95;0.93;;;;;;;;;;6212024;23;20040;-91
2023/09/14 01:03:40;;;;;;;1.55;0.93;;;;;;;;;;6213629;23;20122;-91
2023/09/14 01:06:07;;;;;;;3.53;1.45;;;;;;;;;;6186974;23;20389;-91
2023/09/14 01:08:33;;;;;;;1.27;1.15;;;;;;;;;;6214632;23;20341;-90
2023/09/14 01:11:00;;;;;;;4.43;1.10;;;;;;;;;;6213638;23;20075;-92
2023/09/14 01:14:08;;;;;;;1.25;0.68;;;;;;;;;;6213028;23;20016;-90
2023/09/14 01:16:40;;;;;;;2.83;0.73;;;;;;;;;;6100682;23;20013;-90
2023/09/14 01:19:16;;;;;;;1.50;0.73;;;;;;;;;;6078453;23;20014;-91
2023/09/14 01:21:42;;;;;;;;;;;;;;;;;;6104828;23;20049;-92
2023/09/14 01:24:20;;;;;;;2.80;0.90;;;;;;;;;;6110747;23;20347;-92
2023/09/14 01:26:46;;;;;;;2.00;1.17;;;;;;;;;;6117017;23;20073;-91
2023/09/14 01:29:12;;;;;;;2.15;0.75;;;;;;;;;;6117634;23;20014;-91
2023/09/14 01:31:38;;;;;;;1.52;0.95;;;;;;;;;;6106646;23;20025;-92
2023/09/14 01:34:05;;;;;;;1.98;0.93;;;;;;;;;;6095708;23;20018;-91
2023/09/14 01:36:33;;;;;;;1.38;0.63;;;;;;;;;;6096049;23;20379;-90
2023/09/14 01:39:00;;;;;;;1.08;0.80;;;;;;;;;;6095372;23;20018;-90
2023/09/14 01:41:27;;;;;;;1.85;1.00;;;;;;;;;;6094162;23;20374;-91
2023/09/14 01:43:54;;;;;;;1.45;0.73;;;;;;;;;;6096639;23;20104;-90
2023/09/14 01:46:20;;;;;;;2.50;0.98;;;;;;;;;;6096866;23;20018;-90
2023/09/14 01:48:46;;;;;;;2.88;0.80;;;;;;;;;;6097532;23;20360;-90
2023/09/14 01:51:12;;;;;;;1.10;0.73;;;;;;;;;;6190891;23;20073;-90
2023/09/14 01:53:38;;;;;;;0.82;0.52;;;;;;;;;;6212929;23;20009;-90
2023/09/14 01:56:04;;;;;;;1.02;0.65;;;;;;;;;;6183968;23;20028;-90
2023/09/14 01:58:31;;;;;;;1.08;0.65;;;;;;;;;;6209690;23;20020;-90
2023/09/14 02:00:57;;;;;;;1.27;0.55;;;;;;;;;;6211621;23;20013;-90
2023/09/14 02:03:24;;;;;;;0.68;0.63;;;;;;;;;;6186685;23;20087;-90
2023/09/14 02:05:57;;;;;;;3.10;0.90;;;;;;;;;;6211267;23;20020;-90
2023/09/14 02:08:24;;;;;;;1.15;0.80;;;;;;;;;;6211869;23;20032;-90
2023/09/14 02:10:50;;;;;;;0.55;0.43;;;;;;;;;;6186539;23;20016;-91
2023/09/14 02:13:16;;;;;;;1.10;0.70;;;;;;;;;;6211008;23;20055;-90
2023/09/14 02:15:42;;;;;;;1.48;0.95;;;;;;;;;;6211912;23;20012;-90
2023/09/14 02:18:08;;;;;;;2.20;1.20;;;;;;;;;;6210288;23;20103;-89
2023/09/14 02:20:35;;;;;;;0.93;0.70;;;;;;;;;;6211737;23;20092;-89
2023/09/14 02:23:02;;;;;;;2.05;0.90;;;;;;;;;;6210998;23;20385;-90
2023/09/14 02:25:28;;;;;;;1.02;0.70;;;;;;;;;;6211474;23;20021;-90
2023/09/14 02:27:54;;;;;;;1.00;0.70;;;;;;;;;;6185507;23;20017;-90
2023/09/14 02:30:20;;;;;;;0.88;0.52;;;;;;;;;;6185145;23;20020;-89
2023/09/14 02:32:46;;;;;;;1.20;1.10;;;;;;;;;;6210648;23;20015;-90
2023/09/14 02:35:12;;;;;;;0.88;0.63;;;;;;;;;;6207548;23;20031;-89
2023/09/14 02:37:38;;;;;;;1.83;0.90;;;;;;;;;;6210943;23;20059;-89
2023/09/14 02:40:07;;;;;;;2.47;0.90;;;;;;;;;;6210741;23;20043;-90
2023/09/14 02:42:36;;;;;;;1.75;0.77;;;;;;;;;;6209674;23;20071;-90
2023/09/14 02:45:03;;;;;;;1.27;0.70;;;;;;;;;;6185672;23;20020;-90
2023/09/14 02:47:29;;;;;;;1.05;0.80;;;;;;;;;;6209547;23;20196;-89
2023/09/14 02:49:55;;;;;;;1.13;0.60;;;;;;;;;;6209306;23;20012;-90
2023/09/14 02:52:21;;;;;;;1.75;0.70;;;;;;;;;;6210670;23;20019;-90
2023/09/14 02:54:47;;;;;;;1.08;0.73;;;;;;;;;;6211109;23;20104;-89
2023/09/14 02:57:13;;;;;;;2.15;0.70;;;;;;;;;;6210133;23;20020;-89
2023/09/14 02:59:39;;;;;;;1.25;0.90;;;;;;;;;;6211568;23;20496;-90
2023/09/14 03:02:05;;;;;;;2.22;1.08;;;;;;;;;;6207996;23;20009;-89
2023/09/14 03:04:31;;;;;;;1.33;0.90;;;;;;;;;;6211149;23;20114;-90
2023/09/14 03:06:57;;;;;;;1.58;1.05;;;;;;;;;;6210408;23;20422;-89
2023/09/14 03:09:23;;;;;;;1.35;0.75;;;;;;;;;;6209496;23;20013;-90
2023/09/14 03:11:49;;;;;;;1.27;0.95;;;;;;;;;;6209679;23;20012;-90
2023/09/14 03:14:15;;;;;;;1.17;0.77;;;;;;;;;;6208106;23;20017;-89
2023/09/14 03:16:41;;;;;;;0.85;0.65;;;;;;;;;;6210439;23;20325;-91
2023/09/14 03:19:07;;;;;;;1.33;0.70;;;;;;;;;;6209497;23;20013;-90
2023/09/14 03:21:33;;;;;;;2.78;0.60;;;;;;;;;;6210135;23;20027;-89
2023/09/14 03:23:59;;;;;;;1.73;0.93;;;;;;;;;;6209728;23;20016;-91
2023/09/14 03:26:27;;;;;;;1.67;0.63;;;;;;;;;;6210297;23;20475;-89
2023/09/14 03:28:53;;;;;;;1.95;0.75;;;;;;;;;;6208725;23;20012;-90
2023/09/14 03:31:19;;;;;;;1.42;0.80;;;;;;;;;;6207745;23;20421;-89
2023/09/14 03:33:52;;;;;;;0.95;0.82;;;;;;;;;;6209945;23;20023;-90
2023/09/14 03:36:18;;;;;;;2.05;0.80;;;;;;;;;;6210601;23;20315;-90
2023/09/14 03:38:44;;;;;;;1.55;1.08;;;;;;;;;;6210892;23;20017;-90
2023/09/14 03:41:12;;;;;;;1.85;1.00;;;;;;;;;;6210209;23;20378;-90
2023/09/14 03:43:38;;;;;;;3.00;1.23;;;;;;;;;;6208203;23;20012;-89
2023/09/14 03:46:04;;;;;;;2.13;1.00;;;;;;;;;;6208490;23;20334;-90
2023/09/14 03:48:30;;;;;;;2.40;1.38;;;;;;;;;;6209693;23;20031;-90
2023/09/14 03:50:59;;;;;;;1.35;0.93;;;;;;;;;;6184373;23;20047;-89
2023/09/14 03:53:26;;;;;;;1.90;0.88;;;;;;;;;;6210116;23;20012;-90
2023/09/14 03:55:52;;;;;;;2.58;1.10;;;;;;;;;;6210144;23;20013;-89
2023/09/14 03:58:18;;;;;;;2.55;1.08;;;;;;;;;;6208616;23;20021;-90
2023/09/14 04:00:44;;;;;;;2.97;1.10;;;;;;;;;;6209027;23;20013;-89
2023/09/14 04:03:11;;;;;;;1.83;1.02;;;;;;;;;;6207737;23;20020;-88
2023/09/14 04:05:37;;;;;;;2.75;1.40;;;;;;;;;;6209888;23;20048;-90
2023/09/14 04:08:03;;;;;;;1.38;0.73;;;;;;;;;;6210303;23;20039;-88
2023/09/14 04:10:29;;;;;;;1.70;0.90;;;;;;;;;;6210451;23;20020;-89
2023/09/14 04:12:58;;;;;;;2.13;0.88;;;;;;;;;;6183077;23;20084;-89
2023/09/14 04:15:24;;;;;;;1.20;0.85;;;;;;;;;;6209611;23;20088;-89
2023/09/14 04:17:50;;;;;;;3.45;1.20;;;;;;;;;;6210269;23;20016;-89
2023/09/14 04:20:16;;;;;;;1.25;0.80;;;;;;;;;;6209781;23;20464;-89
2023/09/14 04:22:42;;;;;;;2.13;1.02;;;;;;;;;;6210247;23;20016;-89
2023/09/14 04:25:08;;;;;;;1.80;0.73;;;;;;;;;;6209748;23;20048;-90
2023/09/14 04:27:34;;;;;;;1.20;0.88;;;;;;;;;;6208967;23;20066;-90
2023/09/14 04:30:00;;;;;;;2.58;1.08;;;;;;;;;;6209798;23;20020;-89
2023/09/14 04:32:26;;;;;;;2.67;1.10;;;;;;;;;;6184953;23;20084;-90
2023/09/14 04:34:52;;;;;;;2.70;1.27;;;;;;;;;;6207185;23;20020;-89
2023/09/14 04:37:18;;;;;;;1.48;0.95;;;;;;;;;;6209042;23;20091;-89
2023/09/14 04:39:46;;;;;;;1.70;0.80;;;;;;;;;;6210502;23;20017;-89
2023/09/14 04:42:12;;;;;;;2.00;1.10;;;;;;;;;;6207092;23;20095;-90
2023/09/14 04:44:38;;;;;;;2.85;1.20;;;;;;;;;;6210205;23;20017;-90
2023/09/14 04:47:04;;;;;;;1.90;1.00;;;;;;;;;;6208600;23;20504;-88
2023/09/14 04:49:30;;;;;;;3.33;1.38;;;;;;;;;;6206030;23;20116;-89
2023/09/14 04:51:57;;;;;;;1.35;1.10;;;;;;;;;;6208688;23;20426;-88
2023/09/14 04:54:23;;;;;;;2.13;0.93;;;;;;;;;;6209651;23;20195;-85
2023/09/14 04:56:49;;;;;;;1.58;1.15;;;;;;;;;;6209080;23;20303;-86
2023/09/14 04:59:15;;;;;;;3.15;1.00;;;;;;;;;;6211419;23;20369;-84
2023/09/14 05:01:42;;;;;;;2.45;1.20;;;;;;;;;;6210471;23;20016;-85
2023/09/14 05:04:08;;;;;;;2.38;0.85;;;;;;;;;;6209082;23;20064;-84
2023/09/14 05:06:34;;;;;;;1.00;0.80;;;;;;;;;;6211394;23;20044;-85
2023/09/14 05:09:00;;;;;;;0.90;0.80;;;;;;;;;;6210634;23;20019;-85
2023/09/14 05:11:26;;;;;;;1.55;0.90;;;;;;;;;;6210022;23;20342;-84
2023/09/14 05:13:52;;;;;;;1.27;0.90;;;;;;;;;;6208863;23;20440;-86
2023/09/14 05:16:18;;;;;;;2.38;0.90;;;;;;;;;;6210054;23;20095;-84
2023/09/14 05:18:45;;;;;;;1.88;0.68;;;;;;;;;;6213114;23;20036;-85
2023/09/14 05:21:12;;;;;;;1.02;0.63;;;;;;;;;;6209578;23;20386;-85
2023/09/14 05:23:38;;;;;;;1.27;0.63;;;;;;;;;;6211122;23;20035;-85
2023/09/14 05:26:04;;;;;;;2.90;1.02;;;;;;;;;;6210234;23;20382;-83
2023/09/14 05:28:30;;;;;;;1.00;0.73;;;;;;;;;;6210350;23;20394;-85
2023/09/14 05:30:56;;;;;;;1.25;0.88;;;;;;;;;;6185237;23;20016;-84
2023/09/14 05:33:22;;;;;;;1.38;0.90;;;;;;;;;;6210877;23;20044;-85
2023/09/14 05:35:50;;;;;;;3.20;1.00;;;;;;;;;;6210890;23;20361;-86
2023/09/14 05:38:16;;;;;;;1.30;0.90;;;;;;;;;;6209902;23;20013;-84
2023/09/14 05:40:42;;;;;;;2.72;1.13;;;;;;;;;;6209684;23;20470;-85
2023/09/14 05:43:08;;;;;;;1.88;0.93;;;;;;;;;;6208302;23;20481;-84
2023/09/14 05:45:34;;;;;;;1.70;1.00;;;;;;;;;;6211033;23;20028;-83
2023/09/14 05:48:04;;;;;;;1.20;1.08;;;;;;;;;;6210004;23;20017;-84
2023/09/14 05:50:30;;;;;;;1.10;0.80;;;;;;;;;;6209877;23;20017;-85
2023/09/14 05:52:56;;;;;;;1.33;0.60;;;;;;;;;;6210161;23;20067;-84
2023/09/14 05:55:22;;;;;;;2.30;1.10;;;;;;;;;;6212166;23;20013;-85
2023/09/14 05:57:49;;;;;;;2.28;0.95;;;;;;;;;;6215143;23;20020;-86
2023/09/14 06:00:15;;;;;;;5.45;1.20;;;;;;;;;;6213937;23;20497;-87
2023/09/14 06:02:41;;;;;;;2.50;0.80;;;;;;;;;;6216679;23;20016;-87
2023/09/14 06:05:08;;;;;;;1.58;0.90;;;;;;;;;;6214286;23;20066;-85
2023/09/14 06:07:34;;;;;;;2.78;1.15;;;;;;;;;;6215027;23;20016;-88
2023/09/14 06:10:00;;;;;;;3.95;1.50;;;;;;;;;;6215262;23;20020;-86
2023/09/14 06:12:29;;;;;;;2.45;1.15;;;;;;;;;;6216605;23;20100;-85
2023/09/14 06:14:55;;;;;;;2.03;1.00;;;;;;;;;;6216430;23;20517;-85
2023/09/14 06:17:21;;;;;;;2.35;1.40;;;;;;;;;;6217432;23;20019;-85
2023/09/14 06:19:47;;;;;;;2.63;1.20;;;;;;;;;;6216852;23;20436;-86
2023/09/14 06:22:13;;;;;;;5.03;1.73;;;;;;;;;;6215577;23;20047;-87
2023/09/14 06:24:39;;;;;;;1.30;1.20;;;;;;;;;;6215785;23;20020;-87
2023/09/14 06:27:05;;;;;;;2.95;1.10;;;;;;;;;;6214834;23;20023;-86
2023/09/14 06:29:31;;;;;;;1.23;0.82;;;;;;;;;;6214902;23;20018;-91
2023/09/14 06:31:57;;;;;;;2.90;1.10;;;;;;;;;;6214495;23;20016;-87
2023/09/14 06:34:23;;;;;;;2.10;1.15;;;;;;;;;;6215602;23;20067;-88
2023/09/14 06:36:49;;;;;;;2.97;1.70;;;;;;;;;;6190775;23;20016;-90
2023/09/14 06:39:15;;;;;;;2.25;1.25;;;;;;;;;;6220898;23;20023;-87
2023/09/14 06:41:42;;;;;;;1.70;0.95;;;;;;;;;;6222451;23;20016;-95
2023/09/14 06:44:08;;;;;;;1.75;1.02;;;;;;;;;;6195951;23;20023;-93
2023/09/14 06:46:34;;;;;;;1.58;0.98;;;;;;;;;;6220255;23;20016;-96
2023/09/14 08:15:53;;;;;;;1.25;0.75;;;;;;;;;;6216230;23;20357;-86
2023/09/14 08:18:22;;;;;;;3.55;1.20;;;;;;;;;;6213846;23;20020;-84
2023/09/14 08:20:48;;;;;;;3.20;0.90;;;;;;;;;;6185830;23;20017;-86
2023/09/14 08:23:15;;;;;;;1.42;0.70;;;;;;;;;;6211558;23;20513;-82
2023/09/14 08:25:46;;;;;;;2.58;0.80;;;;;;;;;;6213354;23;20026;-82
2023/09/14 08:28:18;;;;;;;2.00;0.95;;;;;;;;;;6241428;23;20044;-84
2023/09/14 08:30:45;;;;;;;1.23;1.00;;;;;;;;;;6242179;23;20087;-83
2023/09/14 08:33:12;;;;;;;3.22;1.10;;;;;;;;;;6241650;23;20087;-82
2023/09/14 08:35:38;;;;;;;4.18;1.30;;;;;;;;;;6215369;23;20468;-82
2023/09/14 08:38:05;;;;;;;3.47;1.10;;;;;;;;;;6241965;23;20012;-83
2023/09/14 08:40:31;;;;;;;1.90;1.10;;;;;;;;;;6215709;23;20028;-83
2023/09/14 08:42:58;;;;;;;2.47;0.80;;;;;;;;;;6215898;23;20016;-82
2023/09/14 08:45:24;;;;;;;3.00;0.93;;;;;;;;;;6215809;23;20381;-82
2023/09/14 08:47:50;;;;;;;2.67;1.00;;;;;;;;;;6216416;23;20012;-82
2023/09/14 08:50:18;;;;;;;2.10;1.20;;;;;;;;;;6213472;23;20383;-83
2023/09/14 08:52:45;;;;;;;2.53;0.90;;;;;;;;;;6215382;23;20345;-85
2023/09/14 08:55:11;;;;;;;2.55;1.00;;;;;;;;;;6242243;23;20066;-86
2023/09/14 08:57:41;;;;;;;1.70;0.90;;;;;;;;;;6217050;23;20396;-84
2023/09/14 09:00:14;;;;;;;2.90;1.02;;;;;;;;;;6243089;23;20063;-86
2023/09/14 09:02:40;;;;;;;4.25;1.02;;;;;;;;;;6215073;23;20054;-88
2023/09/14 09:05:06;;;;;;;3.20;0.90;;;;;;;;;;6213322;23;20337;-84
2023/09/14 09:07:33;;;;;;;2.45;0.98;;;;;;;;;;6214238;23;20012;-86
2023/09/14 09:09:59;;;;;;;5.15;1.17;;;;;;;;;;6215262;23;20145;-86
2023/09/14 09:12:25;;;;;;;2.97;0.80;;;;;;;;;;6214167;23;20414;-85
2023/09/14 09:14:51;;;;;;;3.00;1.02;;;;;;;;;;6241584;23;20074;-84
2023/09/14 09:17:17;;;;;;;2.90;0.68;;;;;;;;;;6241788;23;20008;-83
2023/09/14 09:19:47;;;;;;;4.50;0.75;;;;;;;;;;6242227;23;20453;-84
2023/09/14 09:22:17;;;;;;;2.22;0.90;;;;;;;;;;6241439;23;20442;-85
2023/09/14 09:24:43;;;;;;;1.60;0.73;;;;;;;;;;6243662;23;20062;-84
2023/09/14 09:27:28;;;;;;;2.03;0.70;;;;;;;;;;6215018;23;20166;-85
2023/09/14 09:29:58;;;;;;;2.40;0.90;;;;;;;;;;6242939;23;20050;-85
2023/09/14 09:32:24;;;;;;;2.13;0.68;;;;;;;;;;6242344;23;20012;-86
2023/09/14 09:34:50;;;;;;;2.35;0.90;;;;;;;;;;6216173;23;20034;-87
2023/09/14 09:37:17;;;;;;;1.98;0.80;;;;;;;;;;6215832;23;20098;-86
2023/09/14 09:39:43;;;;;;;2.60;0.80;;;;;;;;;;6216106;23;20015;-86
2023/09/14 09:42:11;;;;;;;2.58;0.90;;;;;;;;;;6214174;23;20338;-86
2023/09/14 09:44:38;;;;;;;2.42;1.10;;;;;;;;;;6243719;23;20012;-87
2023/09/14 09:47:04;;;;;;;2.90;0.80;;;;;;;;;;6214190;23;20008;-84
2023/09/14 09:49:31;;;;;;;2.53;0.70;;;;;;;;;;6241099;23;20020;-86
2023/09/14 09:51:57;;;;;;;2.30;0.80;;;;;;;;;;6238760;23;20019;-85
2023/09/14 09:54:24;;;;;;;3.88;1.00;;;;;;;;;;6241835;23;20026;-85
2023/09/14 09:56:54;;;;;;;2.15;0.73;;;;;;;;;;6214540;23;20026;-85
2023/09/14 09:59:20;;;;;;;3.63;1.00;;;;;;;;;;6215487;23;20377;-87
2023/09/14 10:01:47;;;;;;;3.92;1.23;;;;;;;;;;6215326;23;20019;-86
2023/09/14 10:04:13;;;;;;;3.15;0.90;;;;;;;;;;6213874;23;20090;-85
2023/09/14 10:06:41;;;;;;;1.98;0.90;;;;;;;;;;6215306;23;20066;-86
2023/09/14 10:09:11;;;;;;;1.85;0.73;;;;;;;;;;6214310;23;20035;-84
2023/09/14 10:11:38;;;;;;;2.65;0.95;;;;;;;;;;6215756;23;20374;-85
2023/09/14 10:14:05;;;;;;;3.80;0.90;;;;;;;;;;6214364;23;20040;-87
2023/09/14 10:16:35;;;;;;;1.55;0.70;;;;;;;;;;6190311;23;20102;-88
2023/09/14 10:19:02;;;;;;;1.83;0.90;;;;;;;;;;6190999;23;20020;-89
2023/09/14 10:21:28;;;;;;;2.50;0.85;;;;;;;;;;6244082;23;20062;-88
2023/09/14 10:23:55;;;;;;;2.97;0.65;;;;;;;;;;6215535;23;20476;-87
2023/09/14 10:26:21;;;;;;;2.25;0.80;;;;;;;;;;6241912;23;20052;-85
2023/09/14 10:28:47;;;;;;;2.67;0.88;;;;;;;;;;6240444;23;20012;-88
2023/09/14 10:31:14;;;;;;;3.03;0.75;;;;;;;;;;6211674;23;20015;-86
2023/09/14 10:33:45;;;;;;;3.22;0.88;;;;;;;;;;6241927;23;20012;-87
2023/09/14 10:36:11;;;;;;;2.72;1.00;;;;;;;;;;6242122;23;20028;-90
2023/09/14 10:38:42;;;;;;;3.72;1.65;;;;;;;;;;6244331;23;20014;-90
2023/09/14 10:41:08;;;;;;;2.55;0.73;;;;;;;;;;6248951;23;20016;-86
2023/09/14 10:43:34;;;;;;;3.03;1.00;;;;;;;;;;6192867;23;20018;-87
2023/09/14 10:46:01;;;;;;;3.33;0.70;;;;;;;;;;6243671;23;20039;-85
2023/09/14 10:48:30;;;;;;;1.85;0.85;;;;;;;;;;6243951;23;20087;-86
2023/09/14 10:51:00;;;;;;;3.45;1.05;;;;;;;;;;6243722;23;20017;-86
2023/09/14 10:53:26;;;;;;;2.03;0.82;;;;;;;;;;6247169;23;20062;-88
2023/09/14 10:55:53;;;;;;;3.08;1.00;;;;;;;;;;6214699;23;20023;-85
2023/09/14 10:58:19;;;;;;;4.47;0.95;;;;;;;;;;6244649;23;20012;-85
2023/09/14 11:00:45;;;;;;;3.35;0.73;;;;;;;;;;6218119;23;20016;-85
2023/09/14 11:03:13;;;;;;;3.10;0.95;;;;;;;;;;6246223;23;20087;-89
2023/09/14 11:05:49;;;;;;;3.88;1.00;;;;;;;;;;6244974;23;20508;-84
2023/09/14 11:08:16;;;;;;;2.58;0.90;;;;;;;;;;6243963;23;20020;-84
2023/09/14 11:10:55;;;;;;;3.60;1.00;;;;;;;;;;6241487;23;20016;-87
2023/09/14 11:13:22;;;;;;;3.08;0.90;;;;;;;;;;6241529;23;20067;-84
2023/09/14 11:16:18;;;;;;;3.35;0.60;;;;;;;;;;6213923;23;20070;-88
2023/09/14 11:18:44;;;;;;;4.43;1.10;;;;;;;;;;6184236;23;20087;-87
2023/09/14 11:21:42;;;;;;;3.95;0.93;;;;;;;;;;6212040;23;20065;-85
2023/09/14 11:24:09;;;;;;;3.63;0.80;;;;;;;;;;6212065;23;20070;-86
2023/09/14 11:26:38;;;;;;;2.97;0.90;;;;;;;;;;6241385;23;20081;-86
2023/09/14 11:29:05;;;;;;;3.00;1.00;;;;;;;;;;6188098;23;20339;-86
2023/09/14 11:31:32;;;;;;;3.88;0.80;;;;;;;;;;6212834;23;20087;-86
2023/09/14 11:33:58;;;;;;;3.95;0.95;;;;;;;;;;6213074;23;20051;-85
2023/09/14 11:36:30;;;;;;;1.42;0.70;;;;;;;;;;6240113;23;20012;-83
2023/09/14 11:38:57;;;;;;;1.77;0.60;;;;;;;;;;6240767;23;20016;-83
2023/09/14 11:41:40;;;;;;;2.63;0.90;;;;;;;;;;6213764;23;20484;-84
2023/09/14 11:44:06;;;;;;;1.38;0.68;;;;;;;;;;6240285;23;20012;-84
2023/09/14 11:46:34;;;;;;;2.30;0.80;;;;;;;;;;6213889;23;20314;-84
2023/09/14 11:49:00;;;;;;;8.40;1.98;;;;;;;;;;6188833;23;20095;-85
2023/09/14 11:51:27;;;;;;;6.25;1.25;;;;;;;;;;6213167;23;20012;-84
2023/09/14 11:53:56;;;;;;;1.98;1.10;;;;;;;;;;6243391;23;20012;-85
2023/09/14 11:56:24;;;;;;;2.13;0.90;;;;;;;;;;6213879;23;20016;-85
2023/09/14 11:58:50;;;;;;;2.83;1.02;;;;;;;;;;6188923;23;20031;-84
2023/09/14 12:01:17;;;;;;;3.05;1.08;;;;;;;;;;6213650;23;20016;-84
2023/09/14 12:03:43;;;;;;;3.80;1.10;;;;;;;;;;6188046;23;20387;-84
2023/09/14 12:06:09;;;;;;;2.50;0.80;;;;;;;;;;6213467;23;20008;-85
2023/09/14 12:08:35;;;;;;;4.90;1.15;;;;;;;;;;6214674;23;20431;-84
2023/09/14 12:11:01;;;;;;;2.47;0.82;;;;;;;;;;6213072;23;20016;-85
2023/09/14 12:13:29;;;;;;;1.83;0.85;;;;;;;;;;6213379;23;20371;-85
2023/09/14 12:16:03;;;;;;;3.03;1.30;;;;;;;;;;6213101;23;20055;-86
2023/09/14 12:18:40;;;;;;;4.15;0.90;;;;;;;;;;6240939;23;20429;-85
2023/09/14 12:21:07;;;;;;;3.25;2.17;;;;;;;;;;6212192;23;20460;-84
2023/09/14 12:23:36;;;;;;;4.70;0.88;;;;;;;;;;6241223;23;20015;-84
2023/09/14 12:26:03;;;;;;;2.13;0.77;;;;;;;;;;6212698;23;20015;-85
2023/09/14 12:28:29;;;;;;;3.38;0.70;;;;;;;;;;6241006;23;20078;-84
2023/09/14 12:30:55;;;;;;;3.05;1.00;;;;;;;;;;6239427;23;20017;-84
2023/09/14 12:33:21;;;;;;;3.25;1.10;;;;;;;;;;6212610;23;20311;-84
2023/09/14 12:35:47;;;;;;;2.40;0.98;;;;;;;;;;6213853;23;20008;-82
2023/09/14 12:38:13;;;;;;;3.60;1.02;;;;;;;;;;6212587;23;20062;-82
2023/09/14 12:40:40;;;;;;;2.63;0.80;;;;;;;;;;6213151;23;20020;-83
2023/09/14 12:43:07;;;;;;;1.83;0.82;;;;;;;;;;6213112;23;20094;-85
2023/09/14 12:45:33;;;;;;;1.52;1.20;;;;;;;;;;6213594;23;20051;-85
2023/09/14 12:48:03;;;;;;;4.78;1.00;;;;;;;;;;6212716;23;20016;-85
2023/09/14 12:50:30;;;;;;;2.58;0.82;;;;;;;;;;6214875;23;20020;-86
2023/09/14 12:52:57;;;;;;;4.13;1.17;;;;;;;;;;6240824;23;20018;-86
2023/09/14 12:55:25;;;;;;;2.03;1.10;;;;;;;;;;6213852;23;20034;-85
2023/09/14 12:57:52;;;;;;;3.33;1.20;;;;;;;;;;6214014;23;20031;-85
2023/09/14 13:00:23;;;;;;;2.28;1.02;;;;;;;;;;6189157;23;20070;-87
2023/09/14 13:02:49;;;;;;;3.53;1.27;;;;;;;;;;6213953;23;20016;-83
2023/09/14 13:05:16;;;;;;;3.85;1.08;;;;;;;;;;6213411;23;20034;-82
2023/09/14 13:07:48;;;;;;;3.92;1.63;;;;;;;;;;6211459;23;20230;-82
2023/09/14 13:10:19;;;;;;;2.58;1.25;;;;;;;;;;6211887;23;20504;-82
2023/09/14 13:12:50;;;;;;;3.05;1.25;;;;;;;;;;6213942;23;20040;-82
2023/09/14 13:15:28;;;;;;;3.20;1.08;;;;;;;;;;6215072;23;20024;-82
2023/09/14 13:17:58;;;;;;;3.17;1.17;;;;;;;;;;6241592;23;20070;-82
2023/09/14 13:20:30;;;;;;;3.47;1.20;;;;;;;;;;6242767;23;20020;-82
2023/09/14 13:22:57;;;;;;;2.47;0.93;;;;;;;;;;6241469;23;20047;-81
2023/09/14 13:25:26;;;;;;;4.65;1.13;;;;;;;;;;6241395;23;20390;-83
2023/09/14 13:27:53;;;;;;;1.30;0.90;;;;;;;;;;6241523;23;20008;-83
2023/09/14 13:30:20;;;;;;;2.20;1.33;;;;;;;;;;6213942;23;20142;-83
2023/09/14 13:32:46;;;;;;;1.95;0.90;;;;;;;;;;6214279;23;20509;-87
2023/09/14 13:35:12;;;;;;;3.53;1.20;;;;;;;;;;6211678;23;20043;-85
2023/09/14 13:37:39;;;;;;;2.60;1.13;;;;;;;;;;6212232;23;20016;-86
2023/09/14 13:40:08;;;;;;;1.95;0.95;;;;;;;;;;6211908;23;20024;-85
2023/09/14 13:42:35;;;;;;;2.25;1.17;;;;;;;;;;6215399;23;20079;-85
2023/09/14 13:45:01;;;;;;;2.58;1.13;;;;;;;;;;6214440;23;20016;-86
2023/09/14 13:47:27;;;;;;;4.00;1.20;;;;;;;;;;6215376;23;20149;-85
2023/09/14 13:49:54;;;;;;;2.38;1.15;;;;;;;;;;6215820;23;20028;-86
2023/09/14 13:52:20;;;;;;;3.55;1.20;;;;;;;;;;6243313;23;20023;-86
2023/09/14 13:54:46;;;;;;;2.90;1.23;;;;;;;;;;6214852;23;20022;-85
2023/09/14 13:57:12;;;;;;;2.53;1.23;;;;;;;;;;6214498;23;20404;-86
2023/09/14 13:59:38;;;;;;;2.75;1.17;;;;;;;;;;6189996;23;20012;-85
2023/09/14 14:02:05;;;;;;;1.92;1.08;;;;;;;;;;6215396;23;20016;-87
2023/09/14 14:04:31;;;;;;;1.98;1.10;;;;;;;;;;6215009;23;20095;-85
2023/09/14 14:06:58;;;;;;;3.22;1.27;;;;;;;;;;6211783;23;20023;-85
2023/09/14 14:09:24;;;;;;;1.65;0.98;;;;;;;;;;6239951;23;20048;-85
2023/09/14 14:11:50;;;;;;;2.42;1.27;;;;;;;;;;6240373;23;20448;-85
2023/09/14 14:14:16;;;;;;;2.60;0.77;;;;;;;;;;6240178;23;20016;-84
2023/09/14 14:16:42;;;;;;;3.70;1.13;;;;;;;;;;6242269;23;20406;-88
2023/09/14 14:19:09;;;;;;;3.90;1.23;;;;;;;;;;6240505;23;20030;-88
2023/09/14 14:21:35;;;;;;;4.05;1.42;;;;;;;;;;6215865;23;20023;-91
2023/09/14 14:24:04;;;;;;;2.38;1.02;;;;;;;;;;6243315;23;20330;-92
2023/09/14 14:26:30;;;;;;;3.97;0.95;;;;;;;;;;6243129;23;20089;-88
2023/09/14 14:28:56;;;;;;;3.13;1.05;;;;;;;;;;6214720;23;20099;-88
2023/09/14 14:31:22;;;;;;;2.08;1.23;;;;;;;;;;6215728;23;20021;-86
2023/09/14 14:33:48;;;;;;;2.58;1.10;;;;;;;;;;6240318;23;20022;-87
2023/09/14 14:36:15;;;;;;;2.42;0.98;;;;;;;;;;6214199;23;20016;-88
2023/09/14 14:38:41;;;;;;;1.20;0.88;;;;;;;;;;6213597;23;20020;-86
2023/09/14 14:41:07;;;;;;;2.05;1.27;;;;;;;;;;6213655;23;20344;-85
2023/09/14 14:43:33;;;;;;;2.13;1.10;;;;;;;;;;6243159;23;20077;-83
2023/09/14 14:46:05;;;;;;;3.25;1.20;;;;;;;;;;6241053;23;20043;-85
2023/09/14 14:48:31;;;;;;;1.52;0.90;;;;;;;;;;6240745;23;20047;-85
2023/09/14 14:51:00;;;;;;;3.65;1.30;;;;;;;;;;6211842;23;20016;-85
2023/09/14 14:53:27;;;;;;;2.47;1.10;;;;;;;;;;6214739;23;20017;-85
2023/09/14 14:55:53;;;;;;;1.73;1.23;;;;;;;;;;6238979;23;20012;-85
2023/09/14 14:58:23;;;;;;;2.85;1.40;;;;;;;;;;6239406;23;20012;-85
2023/09/14 15:00:49;;;;;;;2.72;1.00;;;;;;;;;;6239398;23;20071;-85
2023/09/14 15:03:15;;;;;;;3.30;1.55;;;;;;;;;;6239522;23;20020;-85
2023/09/14 15:05:42;;;;;;;3.03;1.17;;;;;;;;;;6209624;23;20070;-84
2023/09/14 15:08:08;;;;;;;3.30;1.30;;;;;;;;;;6239137;23;20024;-85
2023/09/14 15:10:34;;;;;;;3.22;1.10;;;;;;;;;;6241298;23;20016;-85
2023/09/14 15:13:00;;;;;;;1.65;0.98;;;;;;;;;;6241460;23;20020;-85
2023/09/14 15:15:26;;;;;;;3.67;1.42;;;;;;;;;;6214532;23;20024;-84
2023/09/14 15:17:53;;;;;;;4.82;1.10;;;;;;;;;;6213919;23;20024;-84
2023/09/14 15:20:19;;;;;;;1.50;1.02;;;;;;;;;;6212772;23;20441;-84
2023/09/14 15:22:46;;;;;;;2.15;1.10;;;;;;;;;;6212939;23;20016;-86
2023/09/14 15:25:12;;;;;;;1.77;1.00;;;;;;;;;;6239986;23;20023;-86
2023/09/14 15:27:38;;;;;;;1.70;0.93;;;;;;;;;;6241242;23;20054;-84
2023/09/14 15:30:04;;;;;;;2.80;1.15;;;;;;;;;;6212679;23;20400;-85
2023/09/14 15:32:30;;;;;;;2.72;0.98;;;;;;;;;;6214058;23;20417;-84
2023/09/14 15:34:56;;;;;;;3.35;1.30;;;;;;;;;;6213745;23;20023;-85
2023/09/14 15:37:22;;;;;;;1.90;1.10;;;;;;;;;;6240350;23;20008;-85
2023/09/14 15:39:48;;;;;;;2.72;1.35;;;;;;;;;;6212763;23;20345;-85
2023/09/14 15:42:14;;;;;;;2.05;1.00;;;;;;;;;;6213186;23;20019;-87
2023/09/14 15:44:42;;;;;;;2.92;1.23;;;;;;;;;;6214262;23;20020;-86
2023/09/14 15:47:08;;;;;;;2.92;1.15;;;;;;;;;;6211812;23;20323;-83
2023/09/14 15:49:34;;;;;;;2.88;1.40;;;;;;;;;;6213171;23;20016;-87
2023/09/14 15:52:00;;;;;;;3.38;1.33;;;;;;;;;;6240722;23;20020;-82
2023/09/14 15:54:26;;;;;;;2.60;1.00;;;;;;;;;;6241346;23;20036;-83
2023/09/14 15:56:52;;;;;;;4.68;1.55;;;;;;;;;;6242967;23;20008;-83
2023/09/14 15:59:18;;;;;;;2.28;1.10;;;;;;;;;;6240912;23;20039;-84
2023/09/14 16:01:44;;;;;;;1.85;1.10;;;;;;;;;;6215918;23;20016;-85
2023/09/14 16:04:13;;;;;;;3.00;0.88;;;;;;;;;;6219186;23;20027;-85
2023/09/14 16:06:39;;;;;;;2.97;0.90;;;;;;;;;;6214099;23;20020;-88
2023/09/14 16:09:10;;;;;;;2.90;1.23;;;;;;;;;;6239426;23;20012;-85